Flight Track Log - Related Links

Times and Time Zones

All times are in EDT time to prevent confusion due to time zone crossing. See the TAM3581 flight status page for this flight to view local times or setup timezone preferences in your user account.

Time Position Orientation Groundspeed Altitude Reporting Facility
EDT Latitude Longitude Course Direction KTS MPH feet Rate Location/Type
Sun 01:31:47 AM -5.0640 -42.8230 185° South 28 32  Level FlightAware ADS-B
Sun 01:32:20 AM -5.0660 -42.8230 180° South 29 33 134 Level FlightAware ADS-B
Sun 01:32:32 AM -5.0670 -42.8230 180° South 31 36 164 Level FlightAware ADS-B
Sun 01:32:57 AM -5.0680 -42.8230 180° South 25 29 179 Level FlightAware ADS-B
Sun 01:33:20 AM -5.0690 -42.8230 180° South 24 28 220 Level FlightAware ADS-B
Sun 01:33:45 AM -5.0700 -42.8230 180° South 21 24 279 Level FlightAware ADS-B
Sun 01:34:05 AM -5.0690 -42.8230 360° North 19 22 393 Level FlightAware ADS-B
Sun 01:34:18 AM -5.0670 -42.8230 360° North 63 72 585 Level FlightAware ADS-B
Sun 01:34:46 AM -5.0500 -42.8250 353° North 162 186 400 1,395 Climbing FlightAware ADS-B
Sun 01:35:01 AM -5.0400 -42.8260 354° North 161 185 1,000 1,674 Climbing FlightAware ADS-B
Sun 01:35:29 AM -5.0200 -42.8370 331° Northwest 191 220 1,600 1,421 Climbing FlightAware ADS-B
Sun 01:35:39 AM -5.0180 -42.8460 283° West 205 236 1,900 1,143 Climbing FlightAware ADS-B
Sun 01:36:11 AM -5.0360 -42.8710 234° Southwest 244 281 2,400 955 Climbing FlightAware ADS-B
Sun 01:36:23 AM -5.0500 -42.8740 192° South 260 299 2,600 2,550 Climbing FlightAware ADS-B
Sun 01:36:51 AM -5.0830 -42.8690 171° South 259 298 4,100 3,000 Climbing FlightAware ADS-B
Sun 01:37:19 AM -5.1180 -42.8620 169° South 266 306 5,400 2,700 Climbing FlightAware ADS-B
Sun 01:37:31 AM -5.1340 -42.8600 173° South 275 316 5,900 2,727 Climbing FlightAware ADS-B
Sun 01:38:03 AM -5.1710 -42.8740 201° Southwest 275 316 7,400 2,727 Climbing FlightAware ADS-B
Sun 01:38:15 AM -5.1860 -42.8810 205° Southwest 277 319 7,900 2,368 Climbing FlightAware ADS-B
Sun 01:38:41 AM -5.2170 -42.8950 204° Southwest 286 329 8,900 2,036 Climbing FlightAware ADS-B
Sun 01:39:11 AM -5.2530 -42.9120 205° Southwest 302 348 9,800 1,440 Climbing FlightAware ADS-B
Sun 01:39:56 AM -5.3150 -42.9400 204° Southwest 344 396 10,700 1,357 Climbing FlightAware ADS-B
Sun 01:40:35 AM -5.3740 -42.9680 205° Southwest 373 429 11,700 1,671 Climbing FlightAware ADS-B
Sun 01:41:15 AM -5.4380 -42.9980 205° Southwest 384 442 12,900 2,000 Climbing FlightAware ADS-B
Sun 01:41:59 AM -5.5100 -43.0310 205° Southwest 390 449 14,500 1,906 Climbing FlightAware ADS-B
Sun 01:42:40 AM -5.5780 -43.0630 205° Southwest 402 463 15,600 1,786 Climbing FlightAware ADS-B
Sun 01:43:23 AM -5.6530 -43.0920 201° Southwest 400 460 17,000 1,862 Climbing FlightAware ADS-B
Sun 01:44:07 AM -5.7360 -43.0980 184° South 407 468 18,300 1,643 Climbing FlightAware ADS-B
Sun 01:44:47 AM -5.8110 -43.1060 186° South 414 476 19,300 1,643 Climbing FlightAware ADS-B
Sun 01:45:31 AM -5.8970 -43.1150 186° South 414 476 20,600 1,390 Climbing FlightAware ADS-B
Sun 01:46:09 AM -5.9690 -43.1220 186° South 424 488 21,200 1,098 Climbing FlightAware ADS-B
Sun 01:46:53 AM -6.0580 -43.1300 185° South 435 501 22,100 1,159 Climbing FlightAware ADS-B
Sun 01:47:37 AM -6.1450 -43.1390 186° South 445 512 22,900 1,286 Climbing FlightAware ADS-B
Sun 01:48:17 AM -6.2290 -43.1470 185° South 445 512 23,900 1,071 Climbing FlightAware ADS-B
Sun 01:49:01 AM -6.3220 -43.1560 185° South 458 527 24,400 795 Climbing FlightAware ADS-B
Sun 01:49:40 AM -6.4030 -43.1640 186° South 466 536 25,000 988 Climbing FlightAware ADS-B
Sun 01:50:26 AM -6.5050 -43.1740 186° South 471 542 25,800 988 Climbing FlightAware ADS-B
Sun 01:51:05 AM -6.5900 -43.1820 185° South 477 549 26,400 857 Climbing FlightAware ADS-B
Sun 01:51:50 AM -6.6900 -43.1920 186° South 484 557 27,000 706 Climbing FlightAware ADS-B
Sun 01:52:30 AM -6.7790 -43.2010 186° South 490 564 27,400 675 Climbing FlightAware ADS-B
Sun 01:53:10 AM -6.8690 -43.2100 186° South 495 570 27,900 825 Climbing FlightAware ADS-B
Sun 01:53:50 AM -6.9650 -43.2190 185° South 499 574 28,500 424 Climbing FlightAware ADS-B
Sun 01:54:35 AM -7.0540 -43.2270 185° South 500 575 28,500 805 Level FlightAware ADS-B
Sun 01:55:12 AM -7.1540 -43.2380 186° South 506 582 29,600 660 Climbing FlightAware ADS-B
Sun 01:56:15 AM -7.2790 -43.2490 185° South 506 582 29,600  Level FlightAware ADS-B
Sun 01:56:51 AM -7.3500 -43.2550 185° South 506 582 29,600 2,815 Level FlightAware ADS-B
Sun 01:57:36 AM -7.4740 -43.2700 187° South 466 536 33,400 2,966 Climbing FlightAware ADS-B
Sun 01:58:20 AM -7.5720 -43.2790 185° South 466 536 34,000 614 Climbing FlightAware ADS-B
Sun 01:59:04 AM -7.6670 -43.2890 186° South 472 543 34,300 651 Climbing FlightAware ADS-B
Sun 01:59:43 AM -7.7510 -43.2970 185° South 471 542 34,900 468 Climbing FlightAware ADS-B
Sun 02:00:21 AM -7.8210 -43.3030 185° South 471 542 34,900  Level FlightAware ADS-B
Sun 02:01:09 AM -7.9100 -43.3110 185° South 471 542 34,900  Level FlightAware ADS-B
Sun 02:01:45 AM -7.9760 -43.3170 185° South 471 542 34,900  Level FlightAware ADS-B
Sun 02:02:33 AM -8.0650 -43.3250 185° South 471 542 34,900  Level FlightAware ADS-B
Sun 02:03:10 AM -8.1330 -43.3310 185° South 471 542 34,900 904 Level FlightAware ADS-B
Sun 02:03:46 AM -8.2940 -43.3510 187° South 495 570 36,000 805 Climbing FlightAware ADS-B
Sun 02:04:32 AM -8.4000 -43.3610 185° South 497 572 36,000  Level FlightAware ADS-B
Sun 02:05:34 AM -8.5460 -43.3760 186° South 506 582 36,000  Level FlightAware ADS-B
Sun 02:06:14 AM -8.6390 -43.3850 185° South 508 585 36,000  Level FlightAware ADS-B
Sun 02:07:00 AM -8.7490 -43.3960 186° South 510 587 36,000  Level FlightAware ADS-B
Sun 02:07:32 AM -8.8220 -43.4030 185° South 511 588 36,000  Level FlightAware ADS-B
Sun 02:08:16 AM -8.9280 -43.4140 186° South 511 588 36,000  Level FlightAware ADS-B
Sun 02:09:00 AM -9.0310 -43.4240 185° South 511 588 36,000  Level FlightAware ADS-B
Sun 02:09:40 AM -9.1250 -43.4330 185° South 512 589 36,000  Level FlightAware ADS-B
Sun 02:10:21 AM -9.2100 -43.4410 185° South 512 589 36,000  Level FlightAware ADS-B
Sun 02:10:57 AM -9.2820 -43.4470 185° South 512 589 36,000  Level FlightAware ADS-B
Sun 02:11:44 AM -9.4180 -43.4620 186° South 511 588 36,000  Level FlightAware ADS-B
Sun 02:12:18 AM -9.5010 -43.4700 185° South 511 588 36,000  Level FlightAware ADS-B
Sun 02:13:00 AM -9.5980 -43.4800 186° South 512 589 36,000  Level FlightAware ADS-B
Sun 02:13:44 AM -9.7010 -43.4900 185° South 511 588 36,000  Level FlightAware ADS-B
Sun 02:15:35 AM -9.9660 -43.5170 186° South 513 590 36,000  Level FlightAware ADS-B
Sun 02:16:16 AM -10.0630 -43.5270 186° South 514 592 36,000  Level FlightAware ADS-B
Sun 02:16:58 AM -10.1630 -43.5370 186° South 515 593 36,000  Level FlightAware ADS-B
Sun 02:17:42 AM -10.2530 -43.5450 185° South 516 594 36,000  Level FlightAware ADS-B
Sun 02:18:28 AM -10.3750 -43.5580 186° South 514 592 36,000  Level FlightAware ADS-B
Sun 02:19:10 AM -10.4760 -43.5680 186° South 514 592 36,000  Level FlightAware ADS-B
Sun 02:19:52 AM -10.5780 -43.5780 186° South 514 592 36,000  Level FlightAware ADS-B
Sun 02:20:35 AM -10.6690 -43.5870 186° South 514 592 36,000  Level FlightAware ADS-B
Sun 02:21:18 AM -10.7780 -43.5980 186° South 512 589 36,000  Level FlightAware ADS-B
Sun 02:22:03 AM -10.8720 -43.6070 185° South 512 589 36,000  Level FlightAware ADS-B
Sun 02:22:27 AM -10.9200 -43.6110 185° South 512 589 36,000  Level FlightAware ADS-B
Sun 02:23:16 AM -11.0180 -43.6200 185° South 512 589 36,000  Level FlightAware ADS-B
Sun 02:23:52 AM -11.0900 -43.6260 185° South 512 589 36,000  Level FlightAware ADS-B
Sun 02:24:28 AM -11.1630 -43.6330 185° South 512 589 36,000  Level FlightAware ADS-B
Sun 02:25:16 AM -11.2590 -43.6410 185° South 512 589 36,000  Level FlightAware ADS-B
Sun 02:25:52 AM -11.3310 -43.6480 185° South 512 589 36,000  Level FlightAware ADS-B
Sun 02:27:10 AM -11.5930 -43.6790 187° South 511 588 36,000  Level FlightAware ADS-B
Sun 02:27:46 AM -11.6650 -43.6860 185° South 511 588 36,000  Level FlightAware ADS-B
Sun 02:28:34 AM -11.7610 -43.6940 185° South 511 588 36,000  Level FlightAware ADS-B
Sun 02:29:10 AM -11.8330 -43.7010 185° South 511 588 36,000  Level FlightAware ADS-B
Sun 02:29:46 AM -11.9050 -43.7070 185° South 511 588 36,000  Level FlightAware ADS-B
Sun 02:30:37 AM -12.0070 -43.7160 185° South 511 588 36,000  Level FlightAware ADS-B
Sun 02:31:09 AM -12.0710 -43.7220 185° South 511 588 36,000  Level FlightAware ADS-B
Sun 02:31:57 AM -12.1670 -43.7300 185° South 511 588 36,000  Level FlightAware ADS-B
Sun 02:32:33 AM -12.2390 -43.7370 185° South 511 588 36,000  Level FlightAware ADS-B
Sun 02:33:21 AM -12.3350 -43.7460 185° South 511 588 36,000  Level FlightAware ADS-B
Sun 02:33:57 AM -12.4070 -43.7520 185° South 511 588 36,000  Level FlightAware ADS-B
Sun 02:34:45 AM -12.5030 -43.7610 185° South 511 588 36,000  Level FlightAware ADS-B
Sun 02:35:21 AM -12.5760 -43.7670 185° South 511 588 36,000  Level FlightAware ADS-B
Sun 02:35:57 AM -12.6480 -43.7740 185° South 511 588 36,000  Level FlightAware ADS-B
Sun 02:38:00 AM -12.8678 -43.8259 193° South  Level Estimated
Sun 02:39:00 AM -12.9751 -43.8513 193° South  Level Estimated
Sun 02:40:00 AM -13.0823 -43.8767 193° South  Level Estimated
Sun 02:41:00 AM -13.1895 -43.9021 193° South  Level Estimated
Sun 02:42:00 AM -13.2968 -43.9276 193° South  Level Estimated
Sun 02:43:00 AM -13.4040 -43.9530 193° South  Level Estimated
Sun 02:44:00 AM -13.5112 -43.9785 193° South  Level Estimated
Sun 02:45:00 AM -13.6184 -44.0040 193° South  Level Estimated
Sun 02:46:00 AM -13.7256 -44.0295 193° South  Level Estimated
Sun 02:47:00 AM -13.8329 -44.0551 193° South  Level Estimated
Sun 02:48:00 AM -13.9401 -44.0807 193° South  Level Estimated
Sun 02:49:00 AM -14.0473 -44.1063 193° South  Level Estimated
Sun 02:50:00 AM -14.1545 -44.1319 193° South  Level Estimated
Sun 02:51:00 AM -14.2617 -44.1575 193° South  Level Estimated
Sun 02:52:00 AM -14.3689 -44.1832 193° South  Level Estimated
Sun 02:53:00 AM -14.4761 -44.2089 193° South  Level Estimated
Sun 02:54:00 AM -14.5833 -44.2346 193° South  Level Estimated
Sun 02:55:00 AM -14.6905 -44.2604 193° South  Level Estimated
Sun 02:56:00 AM -14.7977 -44.2862 193° South  Level Estimated
Sun 02:57:00 AM -14.9048 -44.3120 193° South  Level Estimated
Sun 02:58:00 AM -15.0120 -44.3378 193° South  Level Estimated
Sun 02:59:00 AM -15.1192 -44.3636 193° South  Level Estimated
Sun 03:00:00 AM -15.2264 -44.3895 193° South  Level Estimated
Sun 03:01:00 AM -15.3336 -44.4154 193° South  Level Estimated
Sun 03:02:00 AM -15.4407 -44.4413 193° South  Level Estimated
Sun 03:03:00 AM -15.5479 -44.4673 193° South  Level Estimated
Sun 03:04:00 AM -15.6551 -44.4933 193° South  Level Estimated
Sun 03:05:00 AM -15.7622 -44.5193 193° South  Level Estimated
Sun 03:06:00 AM -15.8694 -44.5453 193° South  Level Estimated
Sun 03:07:00 AM -15.9765 -44.5714 193° South  Level Estimated
Sun 03:07:07 AM -16.9190 -44.7720 193° South 466 536 36,000  Level FlightAware ADS-B
Sun 03:07:51 AM -16.9990 -44.8130 206° Southwest 464 534 36,000  Level FlightAware ADS-B
Sun 03:08:00 AM -16.0837 -44.5975 193° South  Level Estimated
Sun 03:08:31 AM -17.0800 -44.8550 206° Southwest 464 534 36,000  Level FlightAware ADS-B
Sun 03:09:16 AM -17.1650 -44.9000 207° Southwest 465 535 36,000  Level FlightAware ADS-B
Sun 03:10:01 AM -17.2570 -44.9480 206° Southwest 466 536 36,000  Level FlightAware ADS-B
Sun 03:10:31 AM -17.3140 -44.9770 206° Southwest 466 536 36,000  Level FlightAware ADS-B
Sun 03:11:28 AM -17.4200 -45.0330 207° Southwest 466 536 36,000  Level FlightAware ADS-B
Sun 03:12:21 AM -17.5230 -45.0900 208° Southwest 467 537 36,000  Level FlightAware ADS-B
Sun 03:13:01 AM -17.6030 -45.1340 208° Southwest 468 539 36,000  Level FlightAware ADS-B
Sun 03:13:41 AM -17.6730 -45.1730 208° Southwest 469 540 36,000  Level FlightAware ADS-B
Sun 03:14:41 AM -17.7990 -45.2390 207° Southwest 470 541 36,000  Level FlightAware ADS-B
Sun 03:15:21 AM -17.8760 -45.2790 206° Southwest 468 539 36,000  Level FlightAware ADS-B
Sun 03:16:01 AM -17.9520 -45.3190 207° Southwest 468 539 36,000  Level FlightAware ADS-B
Sun 03:16:46 AM -18.0330 -45.3620 207° Southwest 466 536 36,000  Level FlightAware ADS-B
Sun 03:17:26 AM -18.1150 -45.4050 206° Southwest 466 536 36,000  Level FlightAware ADS-B
Sun 03:18:07 AM -18.1860 -45.4420 206° Southwest 466 536 36,000  Level FlightAware ADS-B
Sun 03:18:50 AM -18.2800 -45.4900 206° Southwest 467 537 36,000  Level FlightAware ADS-B
Sun 03:19:31 AM -18.3580 -45.5290 205° Southwest 466 536 36,000  Level FlightAware ADS-B
Sun 03:20:15 AM -18.4480 -45.5760 206° Southwest 466 536 36,000  Level FlightAware ADS-B
Sun 03:20:56 AM -18.5230 -45.6120 204° Southwest 469 540 36,000  Level FlightAware ADS-B
Sun 03:22:00 AM -18.6560 -45.6750 204° Southwest 471 542 36,000  Level FlightAware ADS-B
Sun 03:22:58 AM -18.7710 -45.7310 205° Southwest 468 539 36,000  Level FlightAware ADS-B
Sun 03:23:38 AM -18.8470 -45.7670 204° Southwest 466 536 36,000  Level FlightAware ADS-B
Sun 03:24:20 AM -18.9270 -45.8060 205° Southwest 463 533 36,000  Level FlightAware ADS-B
Sun 03:25:02 AM -19.0110 -45.8490 206° Southwest 464 534 36,000  Level FlightAware ADS-B
Sun 03:25:46 AM -19.0990 -45.8930 205° Southwest 463 533 36,000  Level FlightAware ADS-B
Sun 03:26:28 AM -19.1800 -45.9340 206° Southwest 464 534 36,000  Level FlightAware ADS-B
Sun 03:27:12 AM -19.2660 -45.9770 205° Southwest 464 534 36,000  Level FlightAware ADS-B
Sun 03:27:53 AM -19.3460 -46.0160 205° Southwest 464 534 36,000  Level FlightAware ADS-B
Sun 03:28:32 AM -19.4210 -46.0530 205° Southwest 463 533 36,000  Level FlightAware ADS-B
Sun 03:29:14 AM -19.5030 -46.0930 205° Southwest 463 533 36,000  Level FlightAware ADS-B
Sun 03:29:58 AM -19.5900 -46.1350 204° Southwest 465 535 36,000  Level FlightAware ADS-B
Sun 03:30:38 AM -19.6670 -46.1720 204° Southwest 467 537 36,000  Level FlightAware ADS-B
Sun 03:31:21 AM -19.7500 -46.2120 204° Southwest 468 539 36,000  Level FlightAware ADS-B
Sun 03:32:04 AM -19.8390 -46.2550 204° Southwest 468 539 36,000  Level FlightAware ADS-B
Sun 03:32:44 AM -19.9190 -46.2940 205° Southwest 467 537 36,000  Level FlightAware ADS-B
Sun 03:33:20 AM -19.9870 -46.3290 206° Southwest 467 537 36,000  Level FlightAware ADS-B
Sun 03:34:05 AM -20.0750 -46.3730 205° Southwest 468 539 36,000  Level FlightAware ADS-B
Sun 03:34:45 AM -20.1540 -46.4130 205° Southwest 468 539 36,000  Level FlightAware ADS-B
Sun 03:35:20 AM -20.2220 -46.4470 205° Southwest 463 533 36,000  Level FlightAware ADS-B
Sun 03:36:00 AM -20.3000 -46.4860 205° Southwest 463 533 36,000  Level FlightAware ADS-B
Sun 03:36:44 AM -20.3850 -46.5290 205° Southwest 464 534 36,000  Level FlightAware ADS-B
Sun 03:37:25 AM -20.4650 -46.5690 205° Southwest 467 537 36,000  Level FlightAware ADS-B
Sun 03:38:08 AM -20.5510 -46.6130 206° Southwest 467 537 36,000  Level FlightAware ADS-B
Sun 03:38:50 AM -20.6320 -46.6530 205° Southwest 467 537 36,000  Level FlightAware ADS-B
Sun 03:39:34 AM -20.7200 -46.6970 205° Southwest 468 539 36,000  Level FlightAware ADS-B
Sun 03:40:09 AM -20.7860 -46.7300 205° Southwest 467 537 36,000  Level FlightAware ADS-B
Sun 03:40:49 AM -20.8660 -46.7700 205° Southwest 468 539 36,000  Level FlightAware ADS-B
Sun 03:41:30 AM -20.9460 -46.8100 205° Southwest 467 537 36,000  Level FlightAware ADS-B
Sun 03:42:09 AM -21.0230 -46.8490 205° Southwest 467 537 36,000  Level FlightAware ADS-B
Sun 03:42:45 AM -21.0950 -46.8860 206° Southwest 466 536 36,000  Level FlightAware ADS-B
Sun 03:43:29 AM -21.1780 -46.9320 207° Southwest 464 534 36,000  Level FlightAware ADS-B
Sun 03:44:09 AM -21.2540 -46.9730 207° Southwest 464 534 36,000  Level FlightAware ADS-B
Sun 03:44:56 AM -21.3440 -47.0180 205° Southwest 465 535 36,000  Level FlightAware ADS-B
Sun 03:45:35 AM -21.4230 -47.0570 205° Southwest 463 533 36,000  Level FlightAware ADS-B
Sun 03:46:18 AM -21.5050 -47.0980 205° Southwest 460 529 36,000  Level FlightAware ADS-B
Sun 03:46:59 AM -21.5840 -47.1370 205° Southwest 458 527 36,000  Level FlightAware ADS-B
Sun 03:47:35 AM -21.6560 -47.1730 205° Southwest 458 527 36,000  Level FlightAware ADS-B
Sun 03:48:16 AM -21.7320 -47.2110 205° Southwest 457 526 36,000 -1,059 Level FlightAware ADS-B
Sun 03:49:00 AM -21.8150 -47.2550 206° Southwest 450 518 34,500 -2,203 Descending FlightAware ADS-B
Sun 03:49:35 AM -21.8820 -47.2900 206° Southwest 446 513 33,100 -2,560 Descending FlightAware ADS-B
Sun 03:50:15 AM -21.9580 -47.3220 201° Southwest 455 524 31,300 -2,413 Descending FlightAware ADS-B
Sun 03:51:07 AM -22.0680 -47.3140 176° South 467 537 29,400 -2,220 Descending FlightAware ADS-B
Sun 03:51:55 AM -22.1640 -47.2730 158° South 462 532 27,600 -2,182 Descending FlightAware ADS-B
Sun 03:52:35 AM -22.2440 -47.2390 159° South 456 525 26,200 -2,143 Descending FlightAware ADS-B
Sun 03:53:19 AM -22.3270 -47.2040 159° South 447 514 24,600 -2,138 Descending FlightAware ADS-B
Sun 03:54:02 AM -22.4100 -47.1680 158° South 438 504 23,100 -2,074 Descending FlightAware ADS-B
Sun 03:54:40 AM -22.4810 -47.1380 159° South 430 495 21,800 -2,000 Descending FlightAware ADS-B
Sun 03:55:20 AM -22.5550 -47.1060 158° South 422 486 20,500 -1,929 Descending FlightAware ADS-B
Sun 03:56:04 AM -22.6330 -47.0730 159° South 415 478 19,100 -1,888 Descending FlightAware ADS-B
Sun 03:56:49 AM -22.7150 -47.0390 159° South 405 466 17,700 -1,835 Descending FlightAware ADS-B
Sun 03:57:29 AM -22.7840 -47.0100 159° South 399 459 16,500 -1,725 Descending FlightAware ADS-B
Sun 03:58:09 AM -22.8520 -46.9820 159° South 393 452 15,400 -1,807 Descending FlightAware ADS-B
Sun 03:58:52 AM -22.9240 -46.9510 158° South 385 443 14,000 -1,636 Descending FlightAware ADS-B
Sun 03:59:37 AM -22.9990 -46.9200 159° South 365 420 13,000 -1,037 Descending FlightAware ADS-B
Sun 04:00:13 AM -23.0530 -46.8970 159° South 336 387 12,600 -857 Descending FlightAware ADS-B
Sun 04:01:01 AM -23.1200 -46.8690 159° South 313 360 11,800 -1,125 Descending FlightAware ADS-B
Sun 04:01:33 AM -23.1630 -46.8510 159° South 305 351 11,100 -2,000 Descending FlightAware ADS-B
Sun 04:02:01 AM -23.2010 -46.8350 159° South 321 369 9,800 -2,591 Descending FlightAware ADS-B
Sun 04:02:17 AM -23.2230 -46.8250 157° South 327 376 9,200 -1,286 Descending FlightAware ADS-B
Sun 04:02:43 AM -23.2600 -46.8100 160° South 311 358 8,900 -692 Descending FlightAware ADS-B
Sun 04:03:09 AM -23.2930 -46.7960 159° South 294 338 8,600 -600 Descending FlightAware ADS-B
Sun 04:03:33 AM -23.3220 -46.7830 158° South 273 314 8,400 -600 Descending FlightAware ADS-B
Sun 04:03:49 AM -23.3400 -46.7760 160° South 265 305 8,200 -800 Descending FlightAware ADS-B
Sun 04:04:18 AM -23.3710 -46.7620 157° South 247 284 7,800 -750 Descending FlightAware ADS-B
Sun 04:04:29 AM -23.3820 -46.7530 143° Southeast 243 280 7,700 -878 Descending FlightAware ADS-B
Sun 04:04:59 AM -23.4060 -46.7310 140° Southeast 228 262 7,200 -1,080 Descending FlightAware ADS-B
Sun 04:05:19 AM -23.4220 -46.7160 139° Southeast 229 264 6,800 -1,125 Descending FlightAware ADS-B
Sun 04:05:47 AM -23.4450 -46.6940 139° Southeast 218 251 6,300 -1,116 Descending FlightAware ADS-B
Sun 04:06:02 AM -23.4530 -46.6820 126° Southeast 216 249 6,000 -1,610 Descending FlightAware ADS-B
Sun 04:06:28 AM -23.4630 -46.6570 114° Southeast 199 229 5,200 -1,857 Descending FlightAware ADS-B
Sun 04:06:44 AM -23.4690 -46.6410 112° Southeast 197 227 4,700 -1,313 Descending FlightAware ADS-B
Sun 04:07:00 AM -23.4740 -46.6270 111° Southeast 185 213 4,500 -450 Descending FlightAware ADS-B
Sun 04:07:24 AM -23.4710 -46.6080 80° East 162 186 4,400 -462 Descending FlightAware ADS-B
Sun 04:07:52 AM -23.4660 -46.5860 76° East 159 183 4,100 -857 Descending FlightAware ADS-B
Sun 04:08:20 AM -23.4600 -46.5650 73° East 153 176 3,600 -955 Descending FlightAware ADS-B
Sun 04:08:36 AM -23.4570 -46.5530 75° East 152 175 3,400 -682 Descending FlightAware ADS-B
Sun 04:09:04 AM -23.4510 -46.5320 73° East 151 174 3,100 -720 Descending FlightAware ADS-B
Sun 04:09:26 AM -23.4470 -46.5160 75° East 150 173 2,800 -774 Descending FlightAware ADS-B
Sun 04:10:06 AM -23.4390 -46.4890 72° East 148 170 2,300 -750 Descending FlightAware ADS-B
Sun 04:10:35 AM -23.4350 -46.4730 75° East 82 94 -4,759 Descending FlightAware ADS-B
Sun 04:10:56 AM -23.4340 -46.4690 75° East 24 28  Level FlightAware ADS-B
Sun 04:11:31 AM -23.4300 -46.4670 25° Northeast 21 24  Level FlightAware ADS-B
Sun 04:12:01 AM -23.4310 -46.4710 255° West 33 38  Level FlightAware ADS-B
Sun 04:12:47 AM -23.4330 -46.4780 253° West 35 40  Level FlightAware ADS-B
Sun 04:13:01 AM -23.4330 -46.4800 270° West 18 21  Level FlightAware ADS-B
Sun 04:13:10 AM -23.4330 -46.4810 270° West 19 22  Level FlightAware ADS-B
Sun 04:13:56 AM -23.4330 -46.4840 270° West 13 15  Level FlightAware ADS-B
Sun 04:14:25 AM -23.4310 -46.4840 360° North 17 20  Level FlightAware ADS-B
Sun 04:14:46 AM -23.4290 -46.4850 335° Northwest 19 22  Level FlightAware ADS-B
Sun 04:17:00 AM -23.4321 -46.4695 102° East  Level Estimated
Sun 04:18:00 AM -23.4321 -46.4695 350° North  Level Estimated
Sun 04:19:00 AM -23.4321 -46.4695 350° North  Level Estimated
Sun 04:20:00 AM -23.4321 -46.4695 350° North  Level Estimated
Sun 04:21:00 AM -23.4321 -46.4695 350° North  Level Estimated
Sun 04:22:00 AM -23.4321 -46.4695 350° North  Level Estimated
Sun 04:23:00 AM -23.4321 -46.4695 350° North  Level Estimated
Sun 04:24:00 AM -23.4321 -46.4695 350° North  Level Estimated
Sun 04:25:00 AM -23.4321 -46.4695 350° North  Level Estimated
Sun 04:26:00 AM -23.4321 -46.4695 350° North  Level Estimated
Sun 04:27:00 AM -23.4321 -46.4695 350° North  Level Estimated
Sun 04:28:00 AM -23.4321 -46.4695 350° North  Level Estimated
Sun 04:29:00 AM -23.4321 -46.4695 350° North  Level Estimated
Sun 04:30:00 AM -23.4321 -46.4695 350° North  Level Estimated
Sun 04:31:00 AM -23.4321 -46.4695 350° North  Level Estimated
Sun 04:32:00 AM -23.4321 -46.4695 350° North  Level Estimated
Sun 04:33:00 AM -23.4321 -46.4695 350° North  Level Estimated
Sun 04:34:00 AM -23.4321 -46.4695 350° North  Level Estimated
Sun 04:35:00 AM -23.4321 -46.4695 350° North  Level Estimated
Sun 04:36:00 AM -23.4321 -46.4695 350° North  Level Estimated
Sun 04:37:00 AM -23.4321 -46.4695 350° North  Level Estimated
Sun 04:38:00 AM -23.4321 -46.4695 350° North  Level Estimated
Sun 04:39:00 AM -23.4321 -46.4695 350° North  Level Estimated
Sun 04:40:00 AM -23.4321 -46.4695 350° North  Level Estimated
Sun 04:41:00 AM -23.4321 -46.4695 350° North  Level Estimated
Sun 04:42:00 AM -23.4321 -46.4695 350° North  Level Estimated
Sun 04:43:00 AM -23.4321 -46.4695 350° North  Level Estimated

Login

Don't have an account? Register now (free) for customized features, flight alerts, and more!